Time;durP1;ratioP1;P1;durP2;ratioP2;P2;SDS_P1;SDS_P2;PMS_P1;PMS_P2;Temp;Humidity;BMP_temperature;BMP_pressure;BME280_temperature;BME280_humidity;BME280_pressure;Samples;Min_cycle;Max_cycle;Signal;HPM_P1;HPM_P2
2021/12/12 00:00:35;;;;;;;6.05;3.42;;;5.00;99.90;;;;;;4948320;28;20055;-75
2021/12/12 06:00:45;;;;;;;4.93;2.70;;;3.50;99.90;;;;;;5878720;23;20026;-83
2021/12/12 06:03:15;;;;;;;5.38;2.58;;;3.50;99.90;;;;;;4965640;28;20048;-85
2021/12/12 06:05:43;;;;;;;5.00;2.47;;;3.50;99.90;;;;;;4972667;28;20051;-84
2021/12/12 06:08:11;;;;;;;5.07;2.65;;;3.50;99.90;;;;;;4975382;28;20047;-86
2021/12/12 06:10:41;;;;;;;5.35;2.13;;;3.50;99.90;;;;;;4977025;28;20103;-86
2021/12/12 06:13:15;;;;;;;5.43;2.20;;;3.50;99.90;;;;;;4978361;28;20043;-84
2021/12/12 06:15:48;;;;;;;4.20;2.22;;;3.50;99.90;;;;;;4962249;29;20075;-85
2021/12/12 06:18:16;;;;;;;6.28;2.75;;;3.50;99.90;;;;;;4971569;28;20039;-83
2021/12/12 06:20:45;;;;;;;7.65;3.17;;;3.50;99.90;;;;;;4978849;28;20054;-85
2021/12/12 06:23:14;;;;;;;5.78;2.72;;;3.50;99.90;;;;;;4973651;28;20043;-83
2021/12/12 06:25:42;;;;;;;5.10;2.60;;;3.50;99.90;;;;;;4972105;28;20035;-85
2021/12/12 06:28:11;;;;;;;4.18;2.13;;;3.50;99.90;;;;;;4972476;28;20242;-85
2021/12/12 06:30:39;;;;;;;4.35;2.30;;;3.50;99.90;;;;;;4961855;28;20067;-83
2021/12/12 06:33:10;;;;;;;3.80;2.03;;;3.50;99.90;;;;;;4960901;28;20523;-80
2021/12/12 06:35:38;;;;;;;4.03;1.90;;;3.50;99.90;;;;;;4946123;29;20098;-82
2021/12/12 06:38:09;;;;;;;4.38;2.00;;;3.50;99.90;;;;;;4949855;28;20090;-81
2021/12/12 06:40:38;;;;;;;3.80;2.05;;;3.50;99.90;;;;;;4948754;28;20083;-82
2021/12/12 06:43:10;;;;;;;4.22;2.00;;;3.50;99.90;;;;;;4958215;29;20063;-84
2021/12/12 06:45:38;;;;;;;3.78;1.90;;;3.50;99.80;;;;;;4977182;28;20051;-85
2021/12/12 06:48:08;;;;;;;4.50;2.20;;;3.50;99.70;;;;;;4971285;28;20107;-83
2021/12/12 06:50:38;;;;;;;3.97;1.90;;;3.50;99.90;;;;;;4963714;28;20709;-84
2021/12/12 06:53:06;;;;;;;4.93;1.77;;;3.40;99.70;;;;;;4944531;29;20138;-84
2021/12/12 06:55:36;;;;;;;4.15;2.05;;;3.40;99.70;;;;;;4951219;29;20123;-84
2021/12/12 06:58:07;;;;;;;3.65;2.10;;;3.40;99.70;;;;;;4950927;29;20056;-83
2021/12/12 07:00:36;;;;;;;4.28;2.20;;;3.40;99.70;;;;;;4954704;29;20134;-82
2021/12/12 07:03:04;;;;;;;5.32;2.70;;;3.40;99.70;;;;;;4959644;28;20130;-83
2021/12/12 07:05:33;;;;;;;6.60;2.75;;;3.40;99.70;;;;;;4954419;29;20110;-83
2021/12/12 07:08:03;;;;;;;5.85;2.60;;;3.40;99.70;;;;;;4953368;29;20094;-85
2021/12/12 07:10:33;;;;;;;4.18;2.20;;;3.40;99.60;;;;;;4955232;28;20051;-82
2021/12/12 07:13:02;;;;;;;6.05;2.83;;;3.30;99.50;;;;;;4954094;29;20106;-83
2021/12/12 07:15:38;;;;;;;4.38;2.28;;;3.20;99.20;;;;;;4967388;29;20129;-82
2021/12/12 07:18:10;;;;;;;5.85;2.40;;;3.10;99.20;;;;;;4975297;29;20082;-82
2021/12/12 07:20:40;;;;;;;4.20;2.20;;;2.90;99.50;;;;;;4950704;29;20095;-82
2021/12/12 07:23:12;;;;;;;4.60;2.42;;;2.80;99.80;;;;;;4961050;28;20048;-82
2021/12/12 07:25:42;;;;;;;4.75;2.58;;;2.60;99.90;;;;;;4945609;29;20035;-83
2021/12/12 07:43:47;;;;;;;4.70;2.63;;;2.30;99.90;;;;;;5226456;23;20059;-85
2021/12/12 07:46:14;;;;;;;4.97;2.60;;;2.30;99.90;;;;;;4960641;29;20036;-84
2021/12/12 07:48:45;;;;;;;5.82;3.05;;;2.40;99.90;;;;;;4943569;29;20047;-85
2021/12/12 07:51:14;;;;;;;5.40;3.10;;;2.40;99.90;;;;;;4959312;29;20055;-85
2021/12/12 07:53:42;;;;;;;5.70;2.97;;;2.50;99.90;;;;;;4956430;29;20070;-86
2021/12/12 07:56:10;;;;;;;6.55;3.20;;;2.50;99.90;;;;;;4960404;28;20043;-86
2021/12/12 07:58:39;;;;;;;6.95;3.30;;;2.60;99.90;;;;;;4959028;28;20047;-87
2021/12/12 08:01:08;;;;;;;6.28;3.55;;;2.60;99.90;;;;;;4923083;29;20063;-85
2021/12/12 08:03:37;;;;;;;8.25;3.72;;;2.70;99.90;;;;;;4942580;29;20040;-84
2021/12/12 08:06:09;;;;;;;7.65;3.90;;;2.70;99.90;;;;;;4958483;29;20035;-87
2021/12/12 08:11:24;;;;;;;5.75;3.35;;;2.80;99.90;;;;;;4928475;29;20056;-85
2021/12/12 08:13:54;;;;;;;6.35;3.67;;;2.80;99.90;;;;;;4919132;29;20052;-82
2021/12/12 08:16:25;;;;;;;6.32;3.30;;;2.80;99.90;;;;;;4936705;29;20055;-83
2021/12/12 08:21:36;;;;;;;6.90;3.38;;;2.90;99.90;;;;;;4938066;29;20052;-81
2021/12/12 08:24:08;;;;;;;6.18;3.50;;;3.00;99.90;;;;;;4943697;29;20043;-83
2021/12/12 08:26:42;;;;;;;5.65;3.42;;;3.00;99.90;;;;;;4949809;29;20545;-82
2021/12/12 08:29:11;;;;;;;6.28;3.55;;;3.10;99.90;;;;;;4947688;29;20094;-83
2021/12/12 08:31:41;;;;;;;7.00;3.78;;;3.10;99.90;;;;;;4950464;29;20082;-81
2021/12/12 08:34:11;;;;;;;8.43;3.50;;;3.20;99.90;;;;;;4948955;29;20055;-83
2021/12/12 08:36:42;;;;;;;5.60;3.20;;;3.20;99.90;;;;;;4949190;29;20058;-86
2021/12/12 08:39:12;;;;;;;6.97;3.50;;;3.30;99.90;;;;;;4949551;29;20044;-86
2021/12/12 08:42:08;;;;;;;5.55;3.30;;;3.30;99.90;;;;;;4950618;29;20047;-87
2021/12/12 08:44:38;;;;;;;5.70;3.33;;;3.40;99.90;;;;;;4924295;29;20103;-83
2021/12/12 08:47:10;;;;;;;6.57;3.80;;;3.50;99.90;;;;;;4927015;29;20048;-82
2021/12/12 08:49:42;;;;;;;6.75;3.90;;;3.50;99.90;;;;;;4930144;29;20048;-84
2021/12/12 08:52:15;;;;;;;6.85;4.22;;;3.40;99.90;;;;;;4930554;29;20047;-84
2021/12/12 08:54:45;;;;;;;7.13;4.30;;;3.40;99.90;;;;;;4931562;29;20068;-84
2021/12/12 08:57:31;;;;;;;7.75;4.30;;;3.40;99.90;;;;;;4931866;29;20055;-83
2021/12/12 09:00:00;;;;;;;6.55;3.97;;;3.40;99.90;;;;;;4927945;29;20048;-82
2021/12/12 09:02:30;;;;;;;6.55;4.00;;;3.40;99.90;;;;;;4929582;29;20071;-83
2021/12/12 09:05:02;;;;;;;6.78;4.07;;;3.40;99.90;;;;;;4925585;29;20063;-81
2021/12/12 09:07:36;;;;;;;7.43;4.30;;;3.40;99.90;;;;;;4923526;29;20064;-85
2021/12/12 09:10:10;;;;;;;6.35;3.90;;;3.40;99.90;;;;;;4923827;29;20155;-83
2021/12/12 09:12:41;;;;;;;7.07;4.00;;;3.40;99.90;;;;;;4926837;29;20490;-83
2021/12/12 09:15:20;;;;;;;8.70;4.20;;;3.50;99.90;;;;;;4920072;29;20134;-81
2021/12/12 09:17:53;;;;;;;7.70;3.83;;;3.50;99.90;;;;;;4919072;29;20052;-81
2021/12/12 09:20:31;;;;;;;6.53;4.10;;;3.50;99.90;;;;;;4917664;29;20120;-83
2021/12/12 09:23:07;;;;;;;7.65;4.10;;;3.60;99.90;;;;;;4919220;29;20131;-82
2021/12/12 09:25:43;;;;;;;6.68;4.07;;;3.60;99.90;;;;;;4915075;29;20056;-81
2021/12/12 09:28:21;;;;;;;6.40;3.80;;;3.70;99.90;;;;;;4923004;29;20055;-82
2021/12/12 09:30:48;;;;;;;7.40;3.85;;;3.70;99.90;;;;;;4923044;29;20135;-84
2021/12/12 09:33:22;;;;;;;6.13;3.75;;;3.80;99.90;;;;;;4921019;29;20040;-81
2021/12/12 09:35:56;;;;;;;6.57;4.07;;;3.90;99.90;;;;;;4919424;29;20055;-84
2021/12/12 09:38:31;;;;;;;7.80;3.75;;;4.00;99.90;;;;;;4919444;29;20696;-85
2021/12/12 09:41:24;;;;;;;6.82;3.63;;;4.10;99.90;;;;;;4913983;29;20626;-86
2021/12/12 09:44:20;;;;;;;7.10;4.20;;;4.20;99.90;;;;;;4927702;29;20084;-85
2021/12/12 09:47:28;;;;;;;6.78;3.58;;;4.20;99.90;;;;;;4933899;29;20051;-84
2021/12/12 09:53:31;;;;;;;6.70;3.92;;;4.30;99.90;;;;;;4939544;29;20095;-84
2021/12/12 09:56:06;;;;;;;7.15;3.78;;;4.20;99.50;;;;;;4934924;29;20164;-83
2021/12/12 09:58:48;;;;;;;7.50;4.28;;;4.20;99.50;;;;;;4929911;29;20054;-84
2021/12/12 10:01:27;;;;;;;6.68;4.10;;;4.20;99.50;;;;;;4942435;29;20047;-87
2021/12/12 10:04:22;;;;;;;6.85;4.18;;;4.20;99.60;;;;;;4941272;29;20069;-83
2021/12/12 10:07:04;;;;;;;7.10;3.92;;;4.20;99.60;;;;;;4916378;29;20437;-84
2021/12/12 10:09:44;;;;;;;5.75;3.30;;;4.20;99.30;;;;;;4908421;29;20135;-82
2021/12/12 10:12:16;;;;;;;6.55;3.40;;;4.20;99.30;;;;;;4941097;29;20044;-88
2021/12/12 10:14:50;;;;;;;7.13;3.65;;;4.30;98.90;;;;;;4949544;29;20059;-89
2021/12/12 10:17:26;;;;;;;5.20;3.30;;;4.30;98.70;;;;;;4935891;29;20417;-90
2021/12/12 10:20:01;;;;;;;6.20;3.53;;;4.30;98.70;;;;;;4951581;29;20147;-88
2021/12/12 10:22:42;;;;;;;6.55;3.75;;;4.30;98.70;;;;;;4933064;29;20122;-87
2021/12/12 10:25:14;;;;;;;6.53;3.40;;;4.30;98.80;;;;;;4940848;29;20142;-87
2021/12/12 10:27:52;;;;;;;5.85;3.58;;;4.40;98.80;;;;;;4940310;29;20659;-85
2021/12/12 10:30:24;;;;;;;5.43;3.20;;;4.50;98.40;;;;;;4920897;29;20056;-83
2021/12/12 10:33:03;;;;;;;6.43;3.50;;;4.40;98.30;;;;;;4937663;29;20044;-85
2021/12/12 10:35:38;;;;;;;8.00;3.85;;;4.50;98.60;;;;;;4930727;29;20047;-85
2021/12/12 10:38:12;;;;;;;6.65;3.88;;;4.60;98.20;;;;;;4937275;29;20054;-84
2021/12/12 10:40:47;;;;;;;6.90;3.83;;;4.50;98.00;;;;;;4936771;29;20054;-85
2021/12/12 10:43:23;;;;;;;5.93;3.35;;;4.50;98.00;;;;;;4937418;29;20060;-83
2021/12/12 10:45:59;;;;;;;6.20;3.40;;;4.50;98.10;;;;;;4936767;29;20052;-83
2021/12/12 10:48:38;;;;;;;6.25;3.45;;;4.50;97.90;;;;;;4936441;29;20059;-83
2021/12/12 10:51:10;;;;;;;5.60;3.10;;;4.50;98.00;;;;;;4935931;29;20047;-83
2021/12/12 10:53:48;;;;;;;5.70;3.22;;;4.50;98.10;;;;;;4933190;29;20048;-81
2021/12/12 10:56:24;;;;;;;5.65;3.10;;;4.60;98.10;;;;;;4937040;29;20130;-82
2021/12/12 10:58:58;;;;;;;5.72;3.22;;;4.60;98.20;;;;;;4935832;29;20040;-86
2021/12/12 11:01:29;;;;;;;7.38;3.55;;;4.70;98.20;;;;;;4937700;29;20116;-87
2021/12/12 11:04:10;;;;;;;5.88;3.20;;;4.70;97.90;;;;;;4938403;29;20482;-87
2021/12/12 11:06:42;;;;;;;5.38;3.05;;;4.80;97.80;;;;;;4938297;29;20154;-85
2021/12/12 11:09:18;;;;;;;5.43;3.22;;;4.90;97.90;;;;;;4928476;29;20048;-89
2021/12/12 11:11:51;;;;;;;6.97;3.70;;;4.90;98.00;;;;;;4920678;29;20059;-87
2021/12/12 11:14:24;;;;;;;6.50;3.50;;;4.90;97.70;;;;;;4938114;29;20048;-88
2021/12/12 11:16:56;;;;;;;7.03;3.65;;;5.00;97.70;;;;;;4937633;29;20039;-86
2021/12/12 11:19:34;;;;;;;5.78;3.08;;;5.00;97.60;;;;;;4928312;29;20398;-81
2021/12/12 11:22:06;;;;;;;5.38;3.00;;;5.10;97.40;;;;;;4931615;29;20050;-81
2021/12/12 11:24:42;;;;;;;6.18;3.50;;;5.10;97.00;;;;;;4928664;29;20050;-82
2021/12/12 11:27:14;;;;;;;8.40;4.47;;;5.10;97.00;;;;;;4935263;29;20055;-81
2021/12/12 11:29:48;;;;;;;4.93;2.65;;;5.10;96.90;;;;;;4935570;29;20138;-82
2021/12/12 11:32:21;;;;;;;4.50;2.42;;;5.10;96.20;;;;;;4935054;29;20044;-82
2021/12/12 11:34:52;;;;;;;5.03;2.40;;;5.10;95.90;;;;;;4935300;29;20565;-83
2021/12/12 11:37:30;;;;;;;4.70;2.47;;;5.10;96.00;;;;;;4935458;29;20043;-79
2021/12/12 11:40:06;;;;;;;5.18;2.38;;;5.10;96.00;;;;;;4935413;29;20127;-81
2021/12/12 11:42:43;;;;;;;6.25;2.55;;;5.10;96.20;;;;;;4927880;29;20111;-81
2021/12/12 11:45:19;;;;;;;4.55;2.30;;;5.20;96.10;;;;;;4935263;29;20130;-79
2021/12/12 11:48:03;;;;;;;5.03;2.33;;;5.20;96.00;;;;;;4934803;29;20516;-83
2021/12/12 11:50:38;;;;;;;;;;;5.30;96.20;;;;;;4927604;29;20055;-81
2021/12/12 11:53:13;;;;;;;6.43;2.80;;;5.30;96.20;;;;;;4918871;29;19927;-82
2021/12/12 11:55:44;;;;;;;;;;;5.40;96.00;;;;;;4929617;29;20138;-82
2021/12/12 11:58:30;;;;;;;5.82;3.60;;;5.40;96.10;;;;;;4935921;29;20013;-82
2021/12/12 12:01:08;;;;;;;4.97;2.67;;;5.50;96.10;;;;;;4935560;29;20139;-82
2021/12/12 12:04:00;;;;;;;6.57;3.22;;;5.50;96.20;;;;;;4929061;29;20078;-83
2021/12/12 12:06:38;;;;;;;5.18;2.72;;;5.60;96.10;;;;;;4935824;29;20130;-81
2021/12/12 12:09:29;;;;;;;5.97;3.05;;;5.60;96.00;;;;;;4936393;29;20062;-81
2021/12/12 12:12:12;;;;;;;5.82;2.88;;;5.60;95.90;;;;;;4932334;29;20185;-82
2021/12/12 12:15:03;;;;;;;5.50;2.65;;;5.60;96.30;;;;;;4928859;29;20567;-84
2021/12/12 12:17:37;;;;;;;5.43;3.10;;;5.60;96.20;;;;;;4935079;29;20049;-83
2021/12/12 12:20:13;;;;;;;6.73;3.33;;;5.70;96.10;;;;;;4935334;29;20078;-87
2021/12/12 12:22:47;;;;;;;5.03;2.67;;;5.70;95.90;;;;;;4935521;29;20781;-88
2021/12/12 12:25:24;;;;;;;4.80;2.53;;;5.70;96.10;;;;;;4929256;29;20043;-86
2021/12/12 12:27:59;;;;;;;5.30;2.95;;;5.80;96.10;;;;;;4935855;29;20399;-85
2021/12/12 12:30:52;;;;;;;;;;;5.90;96.00;;;;;;4934643;29;20059;-83
2021/12/12 12:34:26;;;;;;;5.05;2.72;;;6.10;95.70;;;;;;4905243;29;20010;-84
2021/12/12 12:37:57;;;;;;;4.93;2.88;;;6.30;95.60;;;;;;4890417;29;20862;-85
2021/12/12 12:41:15;;;;;;;12.38;6.85;;;6.70;95.20;;;;;;4838787;29;20045;-84
2021/12/12 12:44:34;;;;;;;5.63;3.00;;;6.90;93.90;;;;;;4878213;29;20524;-84
2021/12/12 12:48:14;;;;;;;5.15;2.90;;;7.10;93.90;;;;;;4931582;29;20134;-84
2021/12/12 12:51:03;;;;;;;5.15;2.85;;;7.10;93.40;;;;;;4906659;29;20154;-84
2021/12/12 12:54:11;;;;;;;4.68;2.70;;;7.20;93.50;;;;;;4928428;29;20090;-85
2021/12/12 12:57:17;;;;;;;5.28;2.83;;;7.20;93.30;;;;;;4930115;29;20077;-85
2021/12/12 13:00:06;;;;;;;4.72;2.75;;;7.20;93.20;;;;;;4930082;29;20044;-84
2021/12/12 13:03:13;;;;;;;5.60;3.05;;;7.20;93.10;;;;;;4927958;29;20048;-88
2021/12/12 13:06:48;;;;;;;5.47;3.20;;;7.10;93.10;;;;;;4920679;29;20481;-85
2021/12/12 13:09:29;;;;;;;5.43;3.00;;;7.10;93.50;;;;;;4915614;29;20070;-84
2021/12/12 13:12:26;;;;;;;4.78;2.97;;;7.10;93.50;;;;;;4934739;29;20150;-85
2021/12/12 13:15:05;;;;;;;5.15;2.90;;;7.10;93.50;;;;;;4936577;29;20139;-86
2021/12/12 13:17:53;;;;;;;5.95;3.53;;;7.10;93.70;;;;;;4936304;29;20090;-88
2021/12/12 13:20:43;;;;;;;6.38;3.10;;;7.10;93.70;;;;;;4935138;29;20414;-86
2021/12/12 13:23:30;;;;;;;6.90;3.47;;;7.10;93.60;;;;;;4936022;29;20043;-86
2021/12/12 13:26:05;;;;;;;5.30;3.22;;;7.10;93.80;;;;;;4936034;29;20048;-86
2021/12/12 13:28:51;;;;;;;8.57;4.63;;;7.00;93.40;;;;;;4934635;29;20059;-87
2021/12/12 13:31:27;;;;;;;6.00;3.40;;;7.00;93.90;;;;;;4936081;29;20051;-87
2021/12/12 13:34:05;;;;;;;5.07;2.85;;;7.00;93.80;;;;;;4936085;29;20075;-90
2021/12/12 13:36:51;;;;;;;5.45;2.85;;;7.00;93.80;;;;;;4936365;29;20083;-88
2021/12/12 13:39:31;;;;;;;6.18;3.63;;;7.00;94.00;;;;;;4934441;29;20489;-86
2021/12/12 13:42:20;;;;;;;5.85;3.33;;;7.00;94.20;;;;;;4935889;29;20139;-88
2021/12/12 13:45:10;;;;;;;5.15;2.85;;;7.00;94.30;;;;;;4923371;29;20044;-84
2021/12/12 13:48:07;;;;;;;5.35;3.00;;;7.00;94.40;;;;;;4929238;29;20079;-88
2021/12/12 13:50:44;;;;;;;8.13;3.60;;;7.10;94.50;;;;;;4925125;29;20135;-88
2021/12/12 13:53:23;;;;;;;6.25;3.33;;;7.10;94.30;;;;;;4935654;29;20143;-89
2021/12/12 13:56:02;;;;;;;6.93;3.55;;;7.10;94.40;;;;;;4936021;29;20090;-85
2021/12/12 13:58:38;;;;;;;7.47;3.60;;;7.10;94.40;;;;;;4934998;29;20055;-84
2021/12/12 14:01:11;;;;;;;5.80;3.47;;;7.10;94.70;;;;;;4934946;29;20052;-85
2021/12/12 14:03:51;;;;;;;5.97;3.63;;;7.10;94.60;;;;;;4929082;29;20056;-83
2021/12/12 14:06:21;;;;;;;7.03;3.45;;;7.10;95.10;;;;;;4933604;29;20062;-87
2021/12/12 14:08:53;;;;;;;6.30;3.30;;;7.10;94.90;;;;;;4937273;29;20044;-85
2021/12/12 14:11:26;;;;;;;6.32;3.67;;;7.10;94.90;;;;;;4938630;29;20043;-85
2021/12/12 14:14:02;;;;;;;6.40;3.60;;;7.10;95.10;;;;;;4940980;29;20421;-84
2021/12/12 14:16:32;;;;;;;7.43;3.70;;;7.10;94.90;;;;;;4938175;29;20468;-81
2021/12/12 14:19:08;;;;;;;6.72;3.50;;;7.10;94.90;;;;;;4941426;29;20058;-83
2021/12/12 14:21:37;;;;;;;6.43;3.80;;;7.20;95.00;;;;;;4939097;29;20071;-83
2021/12/12 14:24:05;;;;;;;6.40;3.55;;;7.20;94.90;;;;;;4937204;29;20472;-83
2021/12/12 14:26:36;;;;;;;6.97;3.65;;;7.10;95.00;;;;;;4929821;29;20051;-81
2021/12/12 14:29:09;;;;;;;6.50;3.30;;;7.10;95.20;;;;;;4935569;29;20142;-80
2021/12/12 14:31:43;;;;;;;7.32;3.75;;;7.10;95.40;;;;;;4930077;29;20052;-81
2021/12/12 14:34:23;;;;;;;6.13;3.33;;;7.10;95.60;;;;;;4936478;29;20049;-79
2021/12/12 14:36:53;;;;;;;5.88;3.15;;;7.00;95.60;;;;;;4936505;29;20130;-80
2021/12/12 14:39:25;;;;;;;5.45;3.30;;;7.00;95.90;;;;;;4936203;29;20135;-81
2021/12/12 14:41:59;;;;;;;6.85;3.58;;;7.00;95.80;;;;;;4936096;29;20126;-80
2021/12/12 14:44:31;;;;;;;6.78;3.75;;;6.90;95.90;;;;;;4936089;29;20070;-82
2021/12/12 14:47:08;;;;;;;8.23;4.03;;;7.00;95.80;;;;;;4935334;29;20086;-80
2021/12/12 14:49:40;;;;;;;6.60;3.83;;;6.90;95.80;;;;;;4929220;29;20511;-81
2021/12/12 14:52:18;;;;;;;7.55;4.03;;;6.90;95.80;;;;;;4936009;29;20048;-81
2021/12/12 14:54:51;;;;;;;6.53;3.60;;;6.90;95.80;;;;;;4935883;29;20048;-81
2021/12/12 14:57:27;;;;;;;8.00;4.00;;;7.00;95.80;;;;;;4940456;29;20499;-80
2021/12/12 15:00:02;;;;;;;7.78;4.00;;;7.00;96.10;;;;;;4936250;29;20450;-81
2021/12/12 15:02:34;;;;;;;;;;;7.00;96.00;;;;;;4935745;29;20122;-82
2021/12/12 15:05:08;;;;;;;6.50;3.42;;;7.00;95.90;;;;;;4940959;29;19923;-84
2021/12/12 15:07:39;;;;;;;5.68;3.30;;;7.00;95.50;;;;;;4935949;29;20397;-85
2021/12/12 15:10:14;;;;;;;5.22;3.08;;;7.00;95.50;;;;;;4935572;29;20086;-84
2021/12/12 15:12:46;;;;;;;6.75;3.35;;;7.00;95.30;;;;;;4936537;29;20054;-84
2021/12/12 15:15:21;;;;;;;5.97;3.08;;;7.00;95.30;;;;;;4936011;29;20094;-81
2021/12/12 15:17:52;;;;;;;5.95;3.17;;;7.00;95.20;;;;;;4936126;29;20496;-81
2021/12/12 15:20:27;;;;;;;5.20;3.00;;;7.00;94.90;;;;;;4935669;29;20058;-80
2021/12/12 15:22:59;;;;;;;5.60;2.90;;;7.00;95.00;;;;;;4936266;29;20153;-83
2021/12/12 15:25:35;;;;;;;5.47;3.35;;;7.00;94.90;;;;;;4935574;29;20055;-82
2021/12/12 15:28:08;;;;;;;6.65;3.70;;;7.00;95.00;;;;;;4935242;29;20485;-79
2021/12/12 15:30:52;;;;;;;8.32;3.22;;;7.00;94.90;;;;;;4928906;29;20051;-79
2021/12/12 15:33:24;;;;;;;6.47;3.40;;;7.00;94.80;;;;;;4935391;29;20485;-83
2021/12/12 15:35:56;;;;;;;5.43;3.00;;;6.90;94.90;;;;;;4935491;29;20043;-82
2021/12/12 15:38:27;;;;;;;6.35;3.75;;;6.90;95.00;;;;;;4934798;29;20577;-82
2021/12/12 15:40:58;;;;;;;7.10;3.30;;;6.90;95.00;;;;;;4935325;29;20067;-77
2021/12/12 15:43:36;;;;;;;7.03;3.20;;;6.90;95.10;;;;;;4935069;29;20074;-78
2021/12/12 15:46:09;;;;;;;5.30;3.10;;;6.90;95.10;;;;;;4935538;29;20656;-77
2021/12/12 15:48:44;;;;;;;7.07;3.15;;;6.90;95.20;;;;;;4929845;29;20051;-81
2021/12/12 15:51:13;;;;;;;;;;;6.90;95.20;;;;;;4935721;29;20143;-80
2021/12/12 15:53:50;;;;;;;5.50;2.90;;;6.90;95.00;;;;;;4935232;29;20018;-80
2021/12/12 15:56:25;;;;;;;6.70;3.25;;;6.90;95.00;;;;;;4935136;29;20150;-82
2021/12/12 15:58:55;;;;;;;;;;;6.90;95.00;;;;;;4935535;29;20561;-81
2021/12/12 16:01:33;;;;;;;6.32;3.13;;;6.90;94.80;;;;;;4935019;29;19930;-81
2021/12/12 16:04:03;;;;;;;5.10;2.92;;;6.90;94.70;;;;;;4935022;29;20044;-81
2021/12/12 16:06:35;;;;;;;5.97;3.10;;;6.90;94.90;;;;;;4934820;29;20133;-81
2021/12/12 16:09:13;;;;;;;5.43;2.95;;;6.90;94.70;;;;;;4934724;29;20057;-80
2021/12/12 16:11:41;;;;;;;5.47;2.75;;;6.90;94.70;;;;;;4929251;29;20086;-82
2021/12/12 16:14:12;;;;;;;8.23;3.20;;;6.90;94.80;;;;;;4934742;29;20047;-86
2021/12/12 16:16:46;;;;;;;6.28;3.50;;;6.80;94.80;;;;;;4934868;29;20047;-80
2021/12/12 16:19:18;;;;;;;6.57;3.47;;;6.90;94.70;;;;;;4934010;29;20048;-81
2021/12/12 16:21:50;;;;;;;5.30;2.92;;;6.90;94.60;;;;;;4935449;29;20044;-83
2021/12/12 16:24:30;;;;;;;6.30;3.53;;;6.90;94.50;;;;;;4934782;29;20079;-79
2021/12/12 16:27:04;;;;;;;6.25;3.33;;;6.90;94.50;;;;;;4913906;29;20508;-80
2021/12/12 16:29:33;;;;;;;5.07;2.75;;;6.90;94.50;;;;;;4927665;29;20047;-80
2021/12/12 16:32:05;;;;;;;6.90;3.30;;;6.90;94.50;;;;;;4934529;29;20043;-79
2021/12/12 16:34:35;;;;;;;5.72;3.00;;;6.90;94.20;;;;;;4927399;29;20055;-80
2021/12/12 16:37:06;;;;;;;6.65;3.50;;;6.80;94.20;;;;;;4933943;29;20053;-81
2021/12/12 16:39:47;;;;;;;7.22;3.20;;;6.90;93.90;;;;;;4927519;29;20410;-80
2021/12/12 16:42:19;;;;;;;5.82;2.83;;;6.80;93.80;;;;;;4935191;29;20047;-85
2021/12/12 16:44:55;;;;;;;5.40;2.55;;;6.90;93.80;;;;;;4936194;29;20405;-85
2021/12/12 16:47:29;;;;;;;4.78;2.40;;;6.90;93.50;;;;;;4935947;29;20043;-86
2021/12/12 16:49:58;;;;;;;4.72;2.42;;;6.90;93.40;;;;;;4935748;29;20044;-85
2021/12/12 16:52:33;;;;;;;4.25;2.10;;;6.90;93.40;;;;;;4935250;29;20047;-85
2021/12/12 16:55:11;;;;;;;4.03;2.13;;;6.90;93.30;;;;;;4935393;29;20050;-86
2021/12/12 16:57:43;;;;;;;4.53;2.20;;;6.90;93.40;;;;;;4921003;29;20048;-83
2021/12/12 17:00:17;;;;;;;4.22;2.10;;;6.80;93.40;;;;;;4935541;29;20142;-84
2021/12/12 17:02:52;;;;;;;4.35;2.00;;;6.90;93.50;;;;;;4934288;29;20052;-86
2021/12/12 17:05:26;;;;;;;3.65;1.88;;;6.90;93.50;;;;;;4936894;29;20055;-87
2021/12/12 17:08:03;;;;;;;4.88;1.95;;;6.90;93.50;;;;;;4936149;29;20051;-88
2021/12/12 17:10:39;;;;;;;3.92;2.20;;;6.90;93.50;;;;;;4920886;29;20054;-86
2021/12/12 17:13:06;;;;;;;5.82;2.60;;;7.00;93.60;;;;;;4936022;29;20082;-86
2021/12/12 17:15:35;;;;;;;4.32;2.45;;;7.00;93.80;;;;;;4935114;29;20131;-84
2021/12/12 17:18:09;;;;;;;7.88;3.47;;;7.00;93.80;;;;;;4918160;29;20503;-85
2021/12/12 17:20:43;;;;;;;11.88;5.78;;;7.00;93.90;;;;;;4928909;29;20489;-88
2021/12/12 17:23:16;;;;;;;22.80;10.80;;;7.00;94.10;;;;;;4936691;29;20047;-88
2021/12/12 17:25:47;;;;;;;14.07;6.32;;;7.00;94.10;;;;;;4936515;29;20044;-89
2021/12/12 17:28:18;;;;;;;9.25;4.60;;;7.00;94.10;;;;;;4920257;29;20050;-88
2021/12/12 17:30:51;;;;;;;8.60;5.28;;;7.00;94.20;;;;;;4936922;29;20052;-87
2021/12/12 17:33:24;;;;;;;7.43;4.57;;;6.90;94.20;;;;;;4936449;29;20278;-85
2021/12/12 17:35:56;;;;;;;6.65;3.67;;;7.00;94.00;;;;;;4934614;29;20063;-84
2021/12/12 17:38:29;;;;;;;6.40;3.28;;;7.00;93.90;;;;;;4934549;29;20048;-83
2021/12/12 17:41:05;;;;;;;6.77;3.57;;;7.00;93.70;;;;;;4934065;29;20044;-79
2021/12/12 17:44:22;;;;;;;9.55;3.67;;;6.90;93.50;;;;;;4927037;29;20147;-81
2021/12/12 17:47:59;;;;;;;6.68;3.15;;;7.00;93.30;;;;;;4879303;29;20099;-81
2021/12/12 17:51:24;;;;;;;5.18;2.70;;;7.00;93.10;;;;;;4935178;29;20145;-79
2021/12/12 17:54:02;;;;;;;6.35;2.90;;;7.00;92.60;;;;;;4926253;29;20047;-80
2021/12/12 17:56:37;;;;;;;5.90;2.80;;;7.00;92.20;;;;;;4933223;29;20747;-80
2021/12/12 17:59:12;;;;;;;5.85;2.47;;;7.00;91.90;;;;;;4934259;29;20486;-81
2021/12/12 18:01:46;;;;;;;7.82;3.67;;;6.90;91.70;;;;;;4928038;29;20072;-81
2021/12/12 18:04:16;;;;;;;7.85;4.28;;;7.00;91.70;;;;;;4933453;29;20139;-81
2021/12/12 18:06:56;;;;;;;25.55;10.63;;;7.00;91.50;;;;;;4933020;29;20087;-80
2021/12/12 18:10:04;;;;;;;10.35;4.15;;;7.00;91.10;;;;;;4916333;29;20171;-82
2021/12/12 18:12:31;;;;;;;4.30;1.85;;;7.00;90.90;;;;;;4926724;29;20051;-81
2021/12/12 18:15:02;;;;;;;5.88;2.10;;;7.00;90.90;;;;;;4933257;29;20054;-81
2021/12/12 18:17:54;;;;;;;4.25;1.77;;;7.00;90.60;;;;;;4934499;29;20043;-83
2021/12/12 18:20:38;;;;;;;4.38;1.80;;;7.00;90.60;;;;;;4934949;29;20565;-85
2021/12/12 18:23:13;;;;;;;3.45;1.50;;;7.10;90.60;;;;;;4940448;29;20252;-85
2021/12/12 18:25:48;;;;;;;4.93;1.60;;;7.00;90.70;;;;;;4942092;29;20135;-86
2021/12/12 18:28:29;;;;;;;4.65;1.60;;;7.10;91.20;;;;;;4940376;29;20046;-83
2021/12/12 18:31:07;;;;;;;4.15;1.42;;;7.10;91.80;;;;;;4936637;29;20048;-84
2021/12/12 18:33:37;;;;;;;3.42;1.40;;;7.10;92.20;;;;;;4936490;29;20119;-84
2021/12/12 18:36:17;;;;;;;3.10;1.52;;;7.10;92.60;;;;;;4938956;29;20078;-86
2021/12/12 18:38:48;;;;;;;4.45;1.50;;;7.20;93.00;;;;;;4941272;29;20158;-81
2021/12/12 18:41:22;;;;;;;3.15;1.30;;;7.10;93.10;;;;;;4911849;29;20086;-84
2021/12/12 18:43:55;;;;;;;3.33;1.30;;;7.20;93.30;;;;;;4932045;29;20058;-83
2021/12/12 18:46:27;;;;;;;3.53;1.50;;;7.20;93.40;;;;;;4933075;29;20504;-83
2021/12/12 18:49:05;;;;;;;3.92;1.30;;;7.20;93.40;;;;;;4933929;29;20521;-83
2021/12/12 18:51:40;;;;;;;4.10;1.52;;;7.20;93.50;;;;;;4925867;29;20485;-83
2021/12/12 18:54:12;;;;;;;4.05;1.55;;;7.20;93.00;;;;;;4932645;29;20054;-83
2021/12/12 18:56:47;;;;;;;3.92;1.20;;;7.20;92.70;;;;;;4930450;29;20082;-85
2021/12/12 18:59:19;;;;;;;3.63;1.50;;;7.20;92.40;;;;;;4929896;28;20135;-84
2021/12/12 19:01:51;;;;;;;4.40;1.10;;;7.30;92.00;;;;;;4933494;29;20369;-82
2021/12/12 19:04:24;;;;;;;4.43;1.48;;;7.30;91.80;;;;;;4925217;29;20058;-80
2021/12/12 19:06:53;;;;;;;4.22;1.60;;;7.30;91.90;;;;;;4932310;29;20485;-82
2021/12/12 19:09:24;;;;;;;3.72;1.63;;;7.30;91.80;;;;;;4931015;29;20090;-81
2021/12/12 19:11:53;;;;;;;4.75;1.40;;;7.30;91.50;;;;;;4931552;29;20074;-79
2021/12/12 19:14:27;;;;;;;3.67;1.40;;;7.30;91.30;;;;;;4932133;29;20428;-82
2021/12/12 19:16:58;;;;;;;3.95;1.60;;;7.40;91.10;;;;;;4931929;29;20059;-82
2021/12/12 19:19:28;;;;;;;15.35;6.28;;;7.30;90.90;;;;;;4932239;29;20135;-81
2021/12/12 19:22:00;;;;;;;15.20;7.20;;;7.40;91.00;;;;;;4930805;29;20497;-81
2021/12/12 19:24:30;;;;;;;10.82;4.35;;;7.30;91.00;;;;;;4932041;29;20052;-79
2021/12/12 19:27:06;;;;;;;12.00;4.65;;;7.30;91.10;;;;;;4931495;29;20048;-80
2021/12/12 19:29:42;;;;;;;4.55;1.70;;;7.30;90.80;;;;;;4930595;29;20051;-80
2021/12/12 19:32:13;;;;;;;4.80;1.65;;;7.40;90.70;;;;;;4931594;29;20044;-81
2021/12/12 19:34:46;;;;;;;3.65;1.60;;;7.40;90.70;;;;;;4931289;29;20127;-79
2021/12/12 19:37:18;;;;;;;3.80;1.77;;;7.30;90.60;;;;;;4931222;29;20043;-80
2021/12/12 19:39:50;;;;;;;20.35;8.70;;;7.40;90.50;;;;;;4931310;29;20055;-80
2021/12/12 19:42:28;;;;;;;7.70;3.33;;;7.40;90.50;;;;;;4931335;29;20050;-79
2021/12/12 19:45:05;;;;;;;4.45;2.00;;;7.40;90.50;;;;;;4931536;29;20054;-80
2021/12/12 19:47:33;;;;;;;4.10;1.90;;;7.30;90.60;;;;;;4921812;29;20130;-79
2021/12/12 19:50:01;;;;;;;4.75;2.30;;;7.30;90.60;;;;;;4929545;29;20047;-82
2021/12/12 19:52:33;;;;;;;5.22;2.58;;;7.30;90.80;;;;;;4930475;29;20494;-83
2021/12/12 19:55:07;;;;;;;7.15;2.22;;;7.30;91.00;;;;;;4931325;29;20127;-79
2021/12/12 19:57:36;;;;;;;4.88;2.20;;;7.30;91.00;;;;;;4931094;29;20071;-80
2021/12/12 20:00:16;;;;;;;7.78;2.60;;;7.30;91.10;;;;;;4931222;29;20556;-82
2021/12/12 20:02:45;;;;;;;5.47;2.45;;;7.30;91.20;;;;;;4931133;29;20560;-80
2021/12/12 20:05:18;;;;;;;7.55;3.30;;;7.30;91.30;;;;;;4928888;29;20046;-81
2021/12/12 20:07:47;;;;;;;4.80;2.15;;;7.30;91.50;;;;;;4931286;29;20075;-80